Airfield :
LOGIN :

Register | Disclaimer

   EN    FR    IT 

 










Legend :    VFR   Marginal VFR   IFR   Intensive IFR   Very Intensive IFR
Visi :
Ceiling :
>= 8 km
>= 3000ft
5 to 8 km
1000 to 3000 ft
1500m to 5 km
500 to 1000 ft
800 to 1500m
200 to 500 ft
< 800m
< 200 ft
Symbols :   Thunderstorms  Fog  Heavy snow  Heavy precipitations  Wind > 20 kt
SIGMETs :     Misc.  Thunderstorms  Icing  Turbulence  Mountain Waves  Volcanic Ashes







- Airport Elevation : 36 ft
- IATA code : LTQ
- Download approach charts


LFAT - Le Touquet

CURRENT METAR :
  • 231730Z AUTO 25013KT 230V290 9999 FEW035 BKN048 OVC056 12/05 Q1007 NOSIG

EXPIRED METARs :
  • 231700Z AUTO 26012KT 220V290 9999 FEW042 SCT056 12/05 Q1007 NOSIG
  • 231630Z AUTO 26010KT 220V300 CAVOK 12/05 Q1006 NOSIG
  • 231600Z AUTO 26010KT 220V280 9999 SCT036 SCT047 12/06 Q1006 NOSIG
  • 231530Z AUTO 25010KT 220V280 9999 SCT038 SCT046 BKN052 12/05 Q1005 NOSIG
  • 231500Z AUTO 26010KT 230V290 9999 OVC049 12/06 Q1005 NOSIG

TAF TAF LFAT
Valid from the 23 at 15:00 until the 24 at 00:00 UTC


231400Z 2315/2324 26015KT 9999 BKN040
BECMG 2320/2324 18008KT RA
ATIS : +33 3 21 06 62 84
No reported NOTAMs for that airfield.



MET'MAP, your aeronautical weather chart ! - Copyright ORBIFLY December 2007 - Disclaimer

ORBIFLY MET'MAP TEAM :

Programming & Development : Alexandra Zaïnal
Concept & Development : Baudouin d'Aumeries
Co-Development & Prog : Marc-Olivier Méhu
Technical & hardware support : Manuel Goepfert

Contact : metmap@orbifly.com




SOURCES & CREDITS :

   NOAA